createdAt,value
2022-12-31T00:01:27.285Z,141.75
2022-12-31T00:03:54.802Z,121.50
2022-12-31T00:06:27.102Z,120.07
2022-12-31T00:11:22.799Z,83.75
2022-12-31T00:13:50.336Z,96.53
2022-12-31T00:16:25.605Z,84.18
2022-12-31T00:18:54.754Z,85.53
2022-12-31T00:21:22.439Z,89.20
2022-12-31T00:23:49.246Z,102.90
2022-12-31T00:26:18.594Z,110.55
2022-12-31T00:28:45.428Z,116.40
2022-12-31T00:31:18.508Z,125.25
2022-12-31T00:33:45.675Z,130.98
2022-12-31T00:36:22.444Z,122.38
2022-12-31T00:38:50.783Z,103.18
2022-12-31T00:41:18.649Z,95.60
2022-12-31T00:43:45.823Z,101.57
2022-12-31T00:46:13.050Z,117.70
2022-12-31T00:48:39.972Z,138.15
2022-12-31T00:51:08.992Z,162.20
2022-12-31T00:53:36.030Z,175.48
2022-12-31T00:56:08.206Z,145.45
2022-12-31T01:01:16.805Z,138.70
2022-12-31T01:03:44.003Z,126.22
2022-12-31T01:06:11.176Z,117.25
2022-12-31T01:08:38.282Z,108.93
2022-12-31T01:11:24.159Z,104.95
2022-12-31T01:14:01.043Z,95.30
2022-12-31T01:16:49.300Z,100.53
2022-12-31T01:19:19.691Z,107.10
2022-12-31T01:21:49.519Z,103.53
2022-12-31T01:24:16.963Z,107.32
2022-12-31T01:26:44.259Z,103.97
2022-12-31T01:29:12.041Z,93.13
2022-12-31T01:31:38.948Z,76.75
2022-12-31T01:34:07.175Z,125.28
2022-12-31T01:36:35.705Z,97.00
2022-12-31T01:39:05.468Z,96.57
2022-12-31T01:41:35.507Z,109.63
2022-12-31T01:44:14.033Z,103.03
2022-12-31T01:46:48.092Z,105.38
2022-12-31T01:49:24.098Z,99.53
2022-12-31T01:52:00.434Z,89.70
2022-12-31T01:54:29.190Z,98.45
2022-12-31T01:56:56.643Z,94.38
2022-12-31T01:59:28.339Z,85.95
2022-12-31T02:01:55.519Z,87.05
2022-12-31T02:04:25.162Z,108.95
2022-12-31T02:07:01.594Z,110.07
2022-12-31T02:09:29.528Z,96.18
2022-12-31T02:11:56.128Z,111.57
2022-12-31T02:14:29.012Z,90.05
2022-12-31T02:17:15.889Z,81.95
2022-12-31T02:19:59.937Z,78.40
2022-12-31T02:22:47.646Z,73.50
2022-12-31T02:25:17.162Z,72.95
2022-12-31T02:28:14.885Z,114.97
2022-12-31T02:33:27.908Z,119.57
2022-12-31T02:36:08.490Z,133.02
2022-12-31T02:38:39.334Z,137.10
2022-12-31T02:41:06.317Z,135.40
2022-12-31T02:43:32.850Z,131.23
2022-12-31T02:46:18.920Z,132.13
2022-12-31T02:48:52.638Z,123.90
2022-12-31T02:51:25.682Z,128.85
2022-12-31T02:54:12.358Z,113.65
2022-12-31T02:56:57.370Z,125.82
2022-12-31T02:59:52.806Z,140.18
2022-12-31T03:02:23.384Z,120.80
2022-12-31T03:04:55.832Z,118.20
2022-12-31T03:09:54.556Z,115.03
2022-12-31T03:12:42.453Z,120.15
2022-12-31T03:15:20.457Z,138.80
2022-12-31T03:17:54.140Z,137.00
2022-12-31T03:20:42.092Z,135.55
2022-12-31T03:23:12.788Z,131.68
2022-12-31T03:25:39.648Z,129.95
2022-12-31T03:28:12.749Z,140.57
2022-12-31T03:30:42.303Z,135.50
2022-12-31T03:33:09.421Z,144.55
2022-12-31T03:35:37.471Z,137.38
2022-12-31T03:38:04.957Z,134.27
2022-12-31T03:40:32.853Z,127.82
2022-12-31T03:42:59.628Z,125.63
2022-12-31T03:45:26.674Z,131.98
2022-12-31T03:47:53.455Z,130.73
2022-12-31T03:50:20.557Z,123.93
2022-12-31T03:52:47.518Z,111.28
2022-12-31T03:55:15.030Z,112.13
2022-12-31T03:57:41.827Z,119.90
2022-12-31T04:00:12.882Z,123.68
2022-12-31T04:02:39.744Z,115.40
2022-12-31T04:05:07.659Z,133.38
2022-12-31T04:07:34.286Z,134.82
2022-12-31T04:10:00.972Z,133.10
2022-12-31T04:12:27.681Z,124.40
2022-12-31T04:14:54.188Z,131.75
2022-12-31T04:17:21.209Z,126.90
2022-12-31T04:19:47.853Z,133.10
2022-12-31T04:22:14.593Z,122.10
2022-12-31T04:24:43.071Z,121.78
2022-12-31T04:27:13.675Z,117.13
2022-12-31T04:29:40.324Z,121.50
2022-12-31T04:32:10.052Z,113.57
2022-12-31T04:34:36.797Z,110.03
2022-12-31T04:37:03.655Z,109.03
2022-12-31T04:39:30.374Z,101.15
2022-12-31T04:41:57.209Z,147.95
2022-12-31T04:44:23.878Z,137.90
2022-12-31T04:46:51.487Z,146.77
2022-12-31T04:49:18.330Z,146.48
2022-12-31T04:51:44.868Z,152.70
2022-12-31T04:54:11.586Z,152.10
2022-12-31T04:56:38.269Z,151.07
2022-12-31T04:59:05.721Z,145.75
2022-12-31T05:01:33.343Z,142.75
2022-12-31T05:04:00.359Z,148.27
2022-12-31T05:06:27.023Z,150.00
2022-12-31T05:08:53.667Z,150.68
2022-12-31T05:11:20.398Z,145.43
2022-12-31T05:13:47.092Z,147.05
2022-12-31T05:16:13.798Z,146.52
2022-12-31T05:18:40.535Z,148.43
2022-12-31T05:21:07.349Z,148.20
2022-12-31T05:23:34.164Z,123.05
2022-12-31T05:26:01.973Z,110.32
2022-12-31T05:28:28.795Z,111.93
2022-12-31T05:30:56.136Z,83.80
2022-12-31T05:33:23.194Z,53.00
2022-12-31T05:35:50.226Z,58.70
2022-12-31T05:38:16.910Z,57.38
2022-12-31T05:40:43.629Z,69.10
2022-12-31T05:43:10.302Z,179.02
2022-12-31T05:45:37.112Z,150.73
2022-12-31T05:48:04.286Z,232.82
2022-12-31T05:50:30.943Z,143.10
2022-12-31T05:53:03.985Z,215.88
2022-12-31T05:55:30.709Z,118.43
2022-12-31T05:57:57.369Z,148.77
2022-12-31T06:00:24.063Z,91.55
2022-12-31T06:02:50.707Z,127.25
2022-12-31T06:05:22.474Z,104.90
2022-12-31T06:07:52.437Z,67.78
2022-12-31T06:10:22.078Z,79.13
2022-12-31T06:12:48.764Z,54.80
2022-12-31T06:15:15.507Z,40.40
2022-12-31T06:17:42.168Z,32.22
2022-12-31T06:20:12.817Z,26.83
2022-12-31T06:22:40.181Z,25.85
2022-12-31T06:25:07.043Z,22.35
2022-12-31T06:27:33.725Z,22.10
2022-12-31T06:30:00.293Z,23.85
2022-12-31T06:32:26.933Z,19.67
2022-12-31T06:34:53.533Z,14.77
2022-12-31T06:37:20.226Z,12.98
2022-12-31T06:39:46.713Z,8.98
2022-12-31T06:42:14.344Z,9.18
2022-12-31T06:44:40.996Z,9.80
2022-12-31T06:47:07.678Z,9.13
2022-12-31T06:49:34.189Z,9.27
2022-12-31T06:52:00.884Z,7.13
2022-12-31T06:54:27.542Z,9.05
2022-12-31T06:56:54.452Z,8.50
2022-12-31T06:59:29.552Z,8.73
2022-12-31T07:02:01.534Z,8.88
2022-12-31T07:04:52.174Z,9.02
2022-12-31T07:07:56.183Z,8.82
2022-12-31T07:11:01.560Z,7.15
2022-12-31T07:13:43.738Z,10.82
2022-12-31T07:16:57.711Z,7.22
2022-12-31T07:19:38.295Z,6.95
2022-12-31T07:22:05.615Z,7.65
2022-12-31T07:24:32.470Z,7.05
2022-12-31T07:27:30.627Z,8.45
2022-12-31T07:30:03.399Z,30.65
2022-12-31T07:33:04.445Z,63.60
2022-12-31T07:35:41.684Z,65.82
2022-12-31T07:38:15.157Z,38.70
2022-12-31T07:40:51.727Z,42.35
2022-12-31T07:43:27.327Z,47.00
2022-12-31T07:46:05.509Z,54.53
2022-12-31T07:48:32.422Z,58.40
2022-12-31T07:51:02.053Z,60.97
2022-12-31T07:53:28.947Z,66.78
2022-12-31T07:56:01.763Z,70.63
2022-12-31T07:58:28.305Z,67.85
2022-12-31T08:00:58.340Z,63.78
2022-12-31T08:03:43.794Z,49.40
2022-12-31T08:06:29.171Z,48.75
2022-12-31T08:09:08.155Z,49.30
2022-12-31T08:11:46.926Z,51.70
2022-12-31T08:14:16.830Z,45.17
2022-12-31T08:16:43.971Z,41.25
2022-12-31T08:19:32.319Z,82.18
2022-12-31T08:22:16.170Z,76.40
2022-12-31T08:24:59.557Z,78.85
2022-12-31T08:27:40.437Z,85.28
2022-12-31T08:30:07.255Z,79.40
2022-12-31T08:32:56.102Z,80.22
2022-12-31T08:35:48.801Z,65.25
2022-12-31T08:38:58.341Z,65.18
2022-12-31T08:41:44.255Z,70.45
2022-12-31T08:44:35.091Z,68.63
2022-12-31T08:47:02.575Z,69.40
2022-12-31T08:49:32.188Z,72.75
2022-12-31T08:52:00.800Z,79.38
2022-12-31T08:54:28.513Z,82.20
2022-12-31T08:57:09.602Z,82.13
2022-12-31T08:59:53.442Z,78.32
2022-12-31T09:02:32.321Z,80.13
2022-12-31T09:05:20.007Z,74.25
2022-12-31T09:07:58.535Z,69.20
2022-12-31T09:10:54.096Z,74.28
2022-12-31T09:13:42.544Z,67.30
2022-12-31T09:16:12.396Z,64.72
2022-12-31T09:18:42.897Z,43.65
2022-12-31T09:21:14.969Z,27.83
2022-12-31T09:23:43.159Z,58.13
2022-12-31T09:26:18.812Z,46.63
2022-12-31T09:28:59.639Z,10.00
2022-12-31T09:31:59.531Z,16.17
2022-12-31T09:34:49.238Z,6.20
2022-12-31T09:37:22.032Z,4.63
2022-12-31T09:39:49.191Z,5.80
2022-12-31T09:42:54.762Z,5.13
2022-12-31T09:45:28.331Z,5.78
2022-12-31T09:48:13.607Z,6.32
2022-12-31T09:50:54.101Z,4.95
2022-12-31T09:53:56.061Z,6.35
2022-12-31T09:56:44.168Z,5.45
2022-12-31T09:59:34.066Z,7.72
2022-12-31T10:02:15.409Z,5.50
2022-12-31T10:05:21.691Z,6.73
2022-12-31T10:08:09.625Z,6.03
2022-12-31T10:10:53.441Z,7.30
2022-12-31T10:13:28.830Z,3.75
2022-12-31T10:16:14.031Z,4.88
2022-12-31T10:19:05.310Z,5.82
2022-12-31T10:21:37.825Z,5.57
2022-12-31T10:24:30.238Z,5.65
2022-12-31T10:27:16.474Z,4.20
2022-12-31T10:29:47.657Z,3.95
2022-12-31T10:32:34.130Z,4.40
2022-12-31T10:35:38.765Z,10.93
2022-12-31T10:38:08.106Z,6.78
2022-12-31T10:40:53.275Z,7.60
2022-12-31T10:43:57.497Z,4.72
2022-12-31T10:46:45.698Z,8.88
2022-12-31T10:49:18.394Z,3.90
2022-12-31T10:52:22.825Z,3.95
2022-12-31T10:55:05.107Z,4.22
2022-12-31T10:57:47.831Z,4.03
2022-12-31T11:00:22.339Z,3.55
2022-12-31T11:03:23.414Z,7.47
2022-12-31T11:06:21.628Z,10.07
2022-12-31T11:09:04.987Z,4.63
2022-12-31T11:11:45.033Z,6.95
2022-12-31T11:14:20.332Z,10.35
2022-12-31T11:17:12.477Z,7.30
2022-12-31T11:19:54.099Z,15.15
2022-12-31T11:22:29.503Z,13.38
2022-12-31T11:25:16.214Z,4.97
2022-12-31T11:28:10.618Z,8.68
2022-12-31T11:30:55.740Z,4.13
2022-12-31T11:33:44.139Z,5.97
2022-12-31T11:36:30.170Z,12.40
2022-12-31T11:39:30.740Z,7.13
2022-12-31T11:42:19.822Z,18.25
2022-12-31T11:44:59.696Z,16.52
2022-12-31T11:48:20.595Z,26.73
2022-12-31T11:50:58.012Z,9.82
2022-12-31T11:53:43.520Z,18.20
2022-12-31T11:56:18.323Z,6.20
2022-12-31T11:58:53.527Z,5.85
2022-12-31T12:01:25.676Z,17.00
2022-12-31T12:03:52.779Z,7.25
2022-12-31T12:06:28.599Z,21.38
2022-12-31T12:09:15.786Z,5.75
2022-12-31T12:11:43.332Z,86.95
2022-12-31T12:14:28.833Z,16.10
2022-12-31T12:17:04.087Z,25.73
2022-12-31T12:19:33.961Z,77.85
2022-12-31T12:22:14.378Z,23.80
2022-12-31T12:24:53.013Z,156.63
2022-12-31T12:27:23.636Z,11.32
2022-12-31T12:29:50.363Z,121.43
2022-12-31T12:32:20.632Z,20.42
2022-12-31T12:34:49.904Z,23.65
2022-12-31T12:37:34.576Z,28.90
2022-12-31T12:40:21.501Z,11.93
2022-12-31T12:42:52.143Z,76.15
2022-12-31T12:45:20.771Z,13.38
2022-12-31T12:48:01.350Z,13.85
2022-12-31T12:50:45.809Z,15.05
2022-12-31T12:53:18.450Z,16.05
2022-12-31T12:56:02.980Z,32.53
2022-12-31T12:58:52.912Z,58.65
2022-12-31T13:01:38.456Z,6.40
2022-12-31T13:04:37.919Z,31.38
2022-12-31T13:07:32.838Z,3.70
2022-12-31T13:10:36.933Z,5.63
2022-12-31T13:13:25.813Z,17.60
2022-12-31T13:16:20.843Z,4.72
2022-12-31T13:18:59.933Z,3.90
2022-12-31T13:21:44.539Z,3.50
2022-12-31T13:24:14.125Z,13.40
2022-12-31T13:26:55.864Z,25.85
2022-12-31T13:29:27.749Z,14.07
2022-12-31T13:31:57.108Z,3.15
2022-12-31T13:34:34.015Z,38.83
2022-12-31T13:37:06.837Z,16.88
2022-12-31T13:39:40.849Z,44.20
2022-12-31T13:42:21.188Z,24.00
2022-12-31T13:45:04.076Z,36.67
2022-12-31T13:47:37.633Z,41.38
2022-12-31T13:50:17.779Z,13.10
2022-12-31T13:53:00.112Z,6.95
2022-12-31T13:55:38.207Z,8.27
2022-12-31T13:58:40.897Z,5.47
2022-12-31T14:01:34.025Z,4.55
2022-12-31T14:04:33.041Z,3.95
2022-12-31T14:09:24.978Z,11.65
2022-12-31T14:11:51.794Z,5.30
2022-12-31T14:14:34.895Z,36.92
2022-12-31T14:17:17.742Z,41.88
2022-12-31T14:20:06.133Z,10.68
2022-12-31T14:22:38.173Z,7.00
2022-12-31T14:27:43.169Z,16.80
2022-12-31T14:30:22.238Z,5.32
2022-12-31T14:32:54.924Z,5.45
2022-12-31T14:36:14.891Z,53.08
2022-12-31T14:38:52.346Z,7.00
2022-12-31T14:41:46.893Z,95.60
2022-12-31T14:44:32.877Z,6.35
2022-12-31T14:47:12.891Z,10.18
2022-12-31T14:50:06.118Z,40.08
2022-12-31T14:52:37.914Z,13.10
2022-12-31T14:55:14.993Z,12.85
2022-12-31T14:58:26.007Z,16.35
2022-12-31T15:00:41.012Z,5.88
2022-12-31T15:03:14.007Z,14.38
2022-12-31T15:05:55.242Z,7.68
2022-12-31T15:08:27.967Z,60.72
2022-12-31T15:11:03.667Z,8.75
2022-12-31T15:13:56.626Z,29.50
2022-12-31T15:16:37.601Z,16.27
2022-12-31T15:19:19.211Z,27.40
2022-12-31T15:22:23.268Z,29.73
2022-12-31T15:24:50.343Z,43.22
2022-12-31T15:27:45.891Z,7.22
2022-12-31T15:30:39.842Z,30.92
2022-12-31T15:33:20.362Z,45.83
2022-12-31T15:35:53.956Z,7.32
2022-12-31T15:38:33.461Z,16.02
2022-12-31T15:41:00.856Z,16.20
2022-12-31T15:43:49.125Z,14.25
2022-12-31T15:46:42.882Z,17.85
2022-12-31T15:49:23.135Z,14.38
2022-12-31T15:52:07.473Z,72.20
2022-12-31T15:54:45.088Z,16.50
2022-12-31T15:57:19.543Z,13.93
2022-12-31T15:59:46.897Z,25.80
2022-12-31T16:02:24.145Z,11.20
2022-12-31T16:04:51.918Z,13.00
2022-12-31T16:07:18.960Z,13.57
2022-12-31T16:09:52.699Z,13.52
2022-12-31T16:12:25.395Z,43.45
2022-12-31T16:14:58.450Z,17.90
2022-12-31T16:17:28.187Z,14.98
2022-12-31T16:19:56.953Z,12.73
2022-12-31T16:22:29.302Z,13.05
2022-12-31T16:27:52.931Z,23.03
2022-12-31T16:30:22.762Z,17.98
2022-12-31T16:32:50.493Z,14.50
2022-12-31T16:35:24.354Z,15.07
2022-12-31T16:38:30.718Z,11.73
2022-12-31T16:41:16.105Z,13.98
2022-12-31T16:43:44.649Z,13.77
2022-12-31T16:46:15.053Z,14.48
2022-12-31T16:48:46.340Z,14.77
2022-12-31T16:51:21.228Z,14.50
2022-12-31T16:53:49.123Z,15.60
2022-12-31T16:56:24.911Z,15.15
2022-12-31T16:59:00.101Z,13.90
2022-12-31T17:01:30.490Z,14.52
2022-12-31T17:04:04.899Z,16.60
2022-12-31T17:06:33.601Z,12.35
2022-12-31T17:09:30.787Z,15.88
2022-12-31T17:12:14.857Z,21.17
2022-12-31T17:14:50.425Z,21.85
2022-12-31T17:17:25.600Z,17.77
2022-12-31T17:19:58.215Z,23.02
2022-12-31T17:22:34.347Z,25.58
2022-12-31T17:25:07.508Z,32.70
2022-12-31T17:27:36.244Z,29.67
2022-12-31T17:30:35.369Z,27.65
2022-12-31T17:33:03.647Z,27.02
2022-12-31T17:35:32.882Z,27.38
2022-12-31T17:38:18.207Z,26.75
2022-12-31T17:40:51.602Z,28.02
2022-12-31T17:43:23.713Z,37.03
2022-12-31T17:45:52.746Z,29.27
2022-12-31T17:50:54.801Z,18.40
2022-12-31T17:53:21.570Z,79.05
2022-12-31T17:55:53.330Z,176.60
2022-12-31T17:58:48.951Z,65.03
2022-12-31T18:01:18.266Z,28.20
2022-12-31T18:03:45.564Z,146.20
2022-12-31T18:06:16.643Z,151.30
2022-12-31T18:08:44.139Z,98.30
2022-12-31T18:11:18.145Z,66.80
2022-12-31T18:13:45.270Z,38.88
2022-12-31T18:16:11.928Z,38.30
2022-12-31T18:18:40.114Z,40.20
2022-12-31T18:21:24.428Z,21.98
2022-12-31T18:23:51.522Z,54.28
2022-12-31T18:26:23.168Z,20.05
2022-12-31T18:28:50.992Z,18.52
2022-12-31T18:31:22.144Z,19.77
2022-12-31T18:33:49.991Z,20.37
2022-12-31T18:36:18.196Z,23.73
2022-12-31T18:38:44.962Z,29.67
2022-12-31T18:41:24.426Z,30.70
2022-12-31T18:43:51.235Z,26.33
2022-12-31T18:46:21.380Z,22.85
2022-12-31T18:48:48.443Z,160.30
2022-12-31T18:51:17.616Z,245.60
2022-12-31T18:53:45.046Z,35.08
2022-12-31T18:56:13.781Z,19.40
2022-12-31T18:58:41.314Z,15.30
2022-12-31T19:01:27.154Z,16.08
2022-12-31T19:04:01.816Z,14.82
2022-12-31T19:06:29.659Z,14.27
2022-12-31T19:08:56.836Z,14.65
2022-12-31T19:11:23.560Z,16.60
2022-12-31T19:13:50.582Z,16.45
2022-12-31T19:16:17.966Z,14.85
2022-12-31T19:18:45.213Z,16.83
2022-12-31T19:21:19.162Z,30.92
2022-12-31T19:23:46.485Z,16.00
2022-12-31T19:26:18.913Z,17.27
2022-12-31T19:28:46.676Z,13.85
2022-12-31T19:31:13.953Z,12.00
2022-12-31T19:33:42.775Z,15.27
2022-12-31T19:36:16.007Z,9.80
2022-12-31T19:38:43.758Z,9.70
2022-12-31T19:41:19.099Z,9.55
2022-12-31T19:43:47.457Z,11.05
2022-12-31T19:46:16.247Z,13.80
2022-12-31T19:48:43.523Z,12.35
2022-12-31T19:51:12.193Z,11.02
2022-12-31T19:53:39.356Z,9.18
2022-12-31T19:56:06.627Z,10.00
2022-12-31T19:58:33.316Z,11.07
2022-12-31T20:01:03.214Z,15.95
2022-12-31T20:03:32.490Z,14.20
2022-12-31T20:06:08.378Z,10.68
2022-12-31T20:08:37.657Z,12.38
2022-12-31T20:11:24.481Z,12.55
2022-12-31T20:13:52.620Z,10.20
2022-12-31T20:16:21.237Z,10.40
2022-12-31T20:18:48.892Z,20.27
2022-12-31T20:21:24.117Z,8.07
2022-12-31T20:23:52.178Z,7.63
2022-12-31T20:26:20.056Z,9.40
2022-12-31T20:28:47.183Z,10.35
2022-12-31T20:31:20.599Z,10.30
2022-12-31T20:33:47.433Z,11.85
2022-12-31T20:36:16.315Z,15.45
2022-12-31T20:38:44.023Z,16.00
2022-12-31T20:41:13.470Z,15.50
2022-12-31T20:43:44.005Z,15.40
2022-12-31T20:46:15.584Z,14.35
2022-12-31T20:51:10.701Z,14.02
2022-12-31T20:53:37.457Z,14.52
2022-12-31T20:56:08.615Z,15.52
2022-12-31T20:58:35.598Z,14.73
2022-12-31T21:01:06.595Z,12.13
2022-12-31T21:04:04.187Z,13.67
2022-12-31T21:06:23.404Z,14.63
2022-12-31T21:08:50.597Z,13.73
2022-12-31T21:11:36.151Z,9.63
2022-12-31T21:14:02.896Z,11.98
2022-12-31T21:16:29.519Z,12.23
2022-12-31T21:18:56.249Z,15.98
2022-12-31T21:21:23.134Z,15.60
2022-12-31T21:23:50.178Z,16.33
2022-12-31T21:26:19.898Z,16.90
2022-12-31T21:28:46.749Z,15.68
2022-12-31T21:31:14.852Z,23.83
2022-12-31T21:33:46.683Z,32.33
2022-12-31T21:36:13.803Z,87.32
2022-12-31T21:38:40.624Z,102.90
2022-12-31T21:41:09.325Z,105.78
2022-12-31T21:43:36.106Z,116.80
2022-12-31T21:46:05.813Z,213.77
2022-12-31T21:48:33.212Z,446.20
2022-12-31T21:51:13.140Z,186.30
2022-12-31T21:53:40.552Z,108.68
2022-12-31T21:56:09.613Z,114.35
2022-12-31T21:58:38.120Z,90.78
2022-12-31T22:01:24.107Z,85.85
2022-12-31T22:03:51.149Z,40.08
2022-12-31T22:06:20.762Z,46.55
2022-12-31T22:08:55.623Z,89.72
2022-12-31T22:11:25.228Z,94.15
2022-12-31T22:13:52.801Z,107.55
2022-12-31T22:16:26.824Z,133.77
2022-12-31T22:18:55.712Z,131.48
2022-12-31T22:21:24.270Z,141.65
2022-12-31T22:23:56.132Z,139.80
2022-12-31T22:26:26.588Z,124.03
2022-12-31T22:28:54.639Z,145.55
2022-12-31T22:31:26.150Z,181.52
2022-12-31T22:33:53.318Z,59.88
2022-12-31T22:36:22.187Z,73.82
2022-12-31T22:38:50.857Z,64.28
2022-12-31T22:41:20.331Z,27.70
2022-12-31T22:43:49.173Z,23.23
2022-12-31T22:46:21.522Z,11.88
2022-12-31T22:48:48.334Z,7.13
2022-12-31T22:51:16.264Z,10.35
2022-12-31T22:53:43.555Z,6.35
2022-12-31T22:56:13.125Z,6.20
2022-12-31T22:58:41.935Z,19.02
2022-12-31T23:01:19.148Z,111.68
2022-12-31T23:03:47.585Z,60.42
2022-12-31T23:06:14.682Z,157.40
2022-12-31T23:08:41.878Z,83.82
2022-12-31T23:11:11.023Z,110.50
2022-12-31T23:14:01.884Z,79.63
2022-12-31T23:16:48.221Z,109.25
2022-12-31T23:19:34.830Z,35.97
2022-12-31T23:22:20.000Z,29.60
2022-12-31T23:24:47.061Z,24.45
2022-12-31T23:29:27.819Z,143.52
2022-12-31T23:31:54.782Z,81.15
2022-12-31T23:34:24.278Z,63.60
2022-12-31T23:36:50.990Z,70.35
2022-12-31T23:39:17.624Z,133.52
2022-12-31T23:41:44.290Z,32.80
2022-12-31T23:44:14.007Z,18.05
2022-12-31T23:46:40.889Z,19.63
2022-12-31T23:49:07.661Z,15.57
2022-12-31T23:51:36.557Z,15.75
2022-12-31T23:54:06.756Z,15.93
2022-12-31T23:56:33.893Z,12.90
2022-12-31T23:59:01.106Z,13.05
